createdAt,value
2017-04-24T00:01:09.061Z,1014.45
2017-04-24T00:02:21.576Z,1014.46
2017-04-24T00:03:34.307Z,1014.42
2017-04-24T00:04:46.826Z,1014.45
2017-04-24T00:05:59.341Z,1014.46
2017-04-24T00:07:11.890Z,1014.43
2017-04-24T00:08:24.106Z,1014.45
2017-04-24T00:09:36.333Z,1014.43
2017-04-24T00:10:48.856Z,1014.44
2017-04-24T00:12:01.078Z,1014.42
2017-04-24T00:13:12.990Z,1014.42
2017-04-24T00:14:25.517Z,1014.43
2017-04-24T00:15:38.023Z,1014.41
2017-04-24T00:16:50.530Z,1014.42
2017-04-24T00:18:02.749Z,1014.44
2017-04-24T00:19:14.980Z,1014.45
2017-04-24T00:20:27.218Z,1014.42
2017-04-24T00:21:39.721Z,1014.41
2017-04-24T00:22:52.259Z,1014.43
2017-04-24T00:24:04.783Z,1014.45
2017-04-24T00:25:16.697Z,1014.4
2017-04-24T00:26:29.203Z,1014.39
2017-04-24T00:27:41.422Z,1014.37
2017-04-24T00:28:53.968Z,1014.37
2017-04-24T00:30:06.516Z,1014.35
2017-04-24T00:31:18.181Z,1014.37
2017-04-24T00:32:30.390Z,1014.34
2017-04-24T00:33:42.352Z,1014.37
2017-04-24T00:34:54.865Z,1014.34
2017-04-24T00:36:07.144Z,1014.33
2017-04-24T00:37:19.368Z,1014.34
2017-04-24T00:38:31.863Z,1014.37
2017-04-24T00:39:44.427Z,1014.33
2017-04-24T00:40:56.705Z,1014.32
2017-04-24T00:42:09.215Z,1014.32
2017-04-24T00:43:21.437Z,1014.29
2017-04-24T00:44:33.943Z,1014.27
2017-04-24T00:45:46.461Z,1014.27
2017-04-24T00:46:58.982Z,1014.28
2017-04-24T00:48:11.178Z,1014.3
2017-04-24T00:49:23.695Z,1014.27
2017-04-24T00:50:36.220Z,1014.24
2017-04-24T00:51:48.733Z,1014.27
2017-04-24T00:53:01.464Z,1014.25
2017-04-24T00:54:14.000Z,1014.26
2017-04-24T00:55:26.528Z,1014.19
2017-04-24T00:56:38.717Z,1014.22
2017-04-24T00:57:51.241Z,1014.22
2017-04-24T00:59:03.762Z,1014.21
2017-04-24T01:00:16.312Z,1014.22
2017-04-24T01:01:28.803Z,1014.17
2017-04-24T01:02:41.320Z,1014.15
2017-04-24T01:03:53.229Z,1014.17
2017-04-24T01:05:05.774Z,1014.15
2017-04-24T01:06:18.320Z,1014.15
2017-04-24T01:07:30.583Z,1014.11
2017-04-24T01:08:43.084Z,1014.1
2017-04-24T01:09:55.604Z,1014.16
2017-04-24T01:11:08.120Z,1014.18
2017-04-24T01:12:20.351Z,1014.15
2017-04-24T01:13:32.883Z,1014.15
2017-04-24T01:14:45.108Z,1014.21
2017-04-24T01:15:57.355Z,1014.15
2017-04-24T01:17:09.597Z,1014.18
2017-04-24T01:18:22.143Z,1014.14
2017-04-24T01:19:34.651Z,1014.21
2017-04-24T01:20:47.163Z,1014.17
2017-04-24T01:21:59.684Z,1014.17
2017-04-24T01:23:12.202Z,1014.09
2017-04-24T01:24:24.397Z,1014.12
2017-04-24T01:25:36.882Z,1014.09
2017-04-24T01:26:49.403Z,1014.1
2017-04-24T01:28:01.910Z,1014.08
2017-04-24T01:29:13.870Z,1014.09
2017-04-24T01:30:26.687Z,1014.1
2017-04-24T01:31:38.926Z,1014.09
2017-04-24T01:32:51.473Z,1014.08
2017-04-24T01:34:03.966Z,1014.08
2017-04-24T01:35:16.461Z,1014.05
2017-04-24T01:36:29.310Z,1014.08
2017-04-24T01:37:41.830Z,1014.07
2017-04-24T01:38:54.360Z,1014.04
2017-04-24T01:40:06.873Z,1014.06
2017-04-24T01:41:19.390Z,1014.03
2017-04-24T01:42:31.911Z,1014.01
2017-04-24T01:43:43.836Z,1013.97
2017-04-24T01:44:56.378Z,1013.95
2017-04-24T01:46:08.909Z,1013.96
2017-04-24T01:47:21.130Z,1013.95
2017-04-24T01:48:33.350Z,1013.96
2017-04-24T01:49:45.840Z,1013.91
2017-04-24T01:50:58.408Z,1013.9
2017-04-24T01:52:10.635Z,1013.92
2017-04-24T01:53:23.148Z,1013.93
2017-04-24T01:54:35.374Z,1013.91
2017-04-24T01:55:47.899Z,1013.88
2017-04-24T01:57:00.123Z,1013.87
2017-04-24T01:58:12.644Z,1013.86
2017-04-24T01:59:24.561Z,1013.87
2017-04-24T02:00:37.083Z,1013.85
2017-04-24T02:01:49.596Z,1013.86
2017-04-24T02:03:02.145Z,1013.85
2017-04-24T02:04:14.687Z,1013.87
2017-04-24T02:05:27.220Z,1013.81
2017-04-24T02:06:39.779Z,1013.8
2017-04-24T02:07:52.301Z,1013.79
2017-04-24T02:09:04.822Z,1013.78
2017-04-24T02:10:17.350Z,1013.77
2017-04-24T02:11:29.871Z,1013.78
2017-04-24T02:12:41.797Z,1013.76
2017-04-24T02:13:54.312Z,1013.78
2017-04-24T02:15:06.813Z,1013.8
2017-04-24T02:16:19.333Z,1013.75
2017-04-24T02:17:31.854Z,1013.72
2017-04-24T02:18:44.404Z,1013.77
2017-04-24T02:19:56.923Z,1013.75
2017-04-24T02:21:09.434Z,1013.74
2017-04-24T02:22:21.669Z,1013.71
2017-04-24T02:23:34.186Z,1013.73
2017-04-24T02:24:46.422Z,1013.73
2017-04-24T02:25:58.947Z,1013.7
2017-04-24T02:27:11.462Z,1013.68
2017-04-24T02:28:23.695Z,1013.68
2017-04-24T02:29:35.910Z,1013.69
2017-04-24T02:30:48.435Z,1013.64
2017-04-24T02:32:00.954Z,1013.64
2017-04-24T02:33:12.589Z,1013.6
2017-04-24T02:34:25.096Z,1013.63
2017-04-24T02:35:37.339Z,1013.59
2017-04-24T02:36:49.864Z,1013.61
2017-04-24T02:38:02.383Z,1013.64
2017-04-24T02:39:14.609Z,1013.66
2017-04-24T02:40:27.126Z,1013.64
2017-04-24T02:41:39.663Z,1013.63
2017-04-24T02:42:51.890Z,1013.6
2017-04-24T02:44:04.403Z,1013.58
2017-04-24T02:45:16.925Z,1013.53
2017-04-24T02:46:29.456Z,1013.49
2017-04-24T02:47:41.991Z,1013.53
2017-04-24T02:48:54.494Z,1013.49
2017-04-24T02:50:07.008Z,1013.53
2017-04-24T02:51:19.525Z,1013.5
2017-04-24T02:52:32.031Z,1013.5
2017-04-24T02:53:44.537Z,1013.49
2017-04-24T02:54:57.074Z,1013.46
2017-04-24T02:56:09.311Z,1013.43
2017-04-24T02:57:21.808Z,1013.42
2017-04-24T02:58:34.307Z,1013.41
2017-04-24T02:59:46.825Z,1013.41
2017-04-24T03:00:59.353Z,1013.43
2017-04-24T03:02:11.874Z,1013.42
2017-04-24T03:03:24.366Z,1013.39
2017-04-24T03:04:36.894Z,1013.36
2017-04-24T03:05:49.129Z,1013.42
2017-04-24T03:07:01.636Z,1013.37
2017-04-24T03:08:13.861Z,1013.39
2017-04-24T03:09:26.375Z,1013.31
2017-04-24T03:10:38.613Z,1013.32
2017-04-24T03:11:50.837Z,1013.3
2017-04-24T03:13:03.117Z,1013.33
2017-04-24T03:14:15.651Z,1013.29
2017-04-24T03:15:28.207Z,1013.3
2017-04-24T03:16:40.746Z,1013.29
2017-04-24T03:17:53.297Z,1013.27
2017-04-24T03:19:05.821Z,1013.29
2017-04-24T03:20:18.090Z,1013.33
2017-04-24T03:21:30.326Z,1013.34
2017-04-24T03:22:42.825Z,1013.26
2017-04-24T03:23:55.375Z,1013.3
2017-04-24T03:25:07.597Z,1013.27
2017-04-24T03:26:20.092Z,1013.27
2017-04-24T03:27:32.617Z,1013.27
2017-04-24T03:28:45.179Z,1013.24
2017-04-24T03:29:57.705Z,1013.25
2017-04-24T03:31:10.247Z,1013.23
2017-04-24T03:32:22.496Z,1013.21
2017-04-24T03:33:35.043Z,1013.24
2017-04-24T03:34:47.571Z,1013.2
2017-04-24T03:36:00.114Z,1013.21
2017-04-24T03:37:12.652Z,1013.19
2017-04-24T03:38:25.178Z,1013.15
2017-04-24T03:39:37.393Z,1013.17
2017-04-24T03:40:49.897Z,1013.15
2017-04-24T03:42:02.406Z,1013.16
2017-04-24T03:43:14.955Z,1013.16
2017-04-24T03:44:27.510Z,1013.12
2017-04-24T03:45:40.029Z,1013.15
2017-04-24T03:46:52.573Z,1013.13
2017-04-24T03:48:05.068Z,1013.14
2017-04-24T03:49:17.569Z,1013.11
2017-04-24T03:50:30.110Z,1013.14
2017-04-24T03:51:42.584Z,1013.14
2017-04-24T03:52:55.145Z,1013.13
2017-04-24T03:54:07.678Z,1013.12
2017-04-24T03:55:19.938Z,1013.1
2017-04-24T03:56:32.440Z,1013.13
2017-04-24T03:57:44.964Z,1013.12
2017-04-24T03:58:57.486Z,1013.11
2017-04-24T04:00:09.729Z,1013.12
2017-04-24T04:01:22.252Z,1013.07
2017-04-24T04:02:34.772Z,1013.04
2017-04-24T04:03:47.291Z,1013.06
2017-04-24T04:04:59.815Z,1013.04
2017-04-24T04:06:12.062Z,1013.05
2017-04-24T04:07:24.306Z,1013.01
2017-04-24T04:08:36.825Z,1012.99
2017-04-24T04:09:48.751Z,1013
2017-04-24T04:11:01.304Z,1012.96
2017-04-24T04:12:13.503Z,1012.93
2017-04-24T04:13:26.003Z,1012.91
2017-04-24T04:14:38.520Z,1012.93
2017-04-24T04:15:51.018Z,1012.89
2017-04-24T04:17:03.516Z,1012.86
2017-04-24T04:18:15.734Z,1012.85
2017-04-24T04:19:28.559Z,1012.83
2017-04-24T04:20:41.058Z,1012.86
2017-04-24T04:21:53.585Z,1012.82
2017-04-24T04:23:06.074Z,1012.81
2017-04-24T04:24:18.592Z,1012.81
2017-04-24T04:25:31.111Z,1012.82
2017-04-24T04:26:43.632Z,1012.82
2017-04-24T04:27:56.162Z,1012.81
2017-04-24T04:29:08.384Z,1012.79
2017-04-24T04:30:20.910Z,1012.77
2017-04-24T04:31:33.446Z,1012.78
2017-04-24T04:32:45.934Z,1012.8
2017-04-24T04:33:58.466Z,1012.8
2017-04-24T04:35:10.663Z,1012.82
2017-04-24T04:36:23.176Z,1012.8
2017-04-24T04:37:35.702Z,1012.81
2017-04-24T04:38:47.923Z,1012.85
2017-04-24T04:40:00.126Z,1012.83
2017-04-24T04:41:12.059Z,1012.83
2017-04-24T04:42:24.602Z,1012.87
2017-04-24T04:43:37.127Z,1012.82
2017-04-24T04:44:49.680Z,1012.83
2017-04-24T04:46:02.243Z,1012.83
2017-04-24T04:47:14.463Z,1012.81
2017-04-24T04:48:26.985Z,1012.78
2017-04-24T04:49:39.495Z,1012.78
2017-04-24T04:50:52.031Z,1012.75
2017-04-24T04:52:04.574Z,1012.77
2017-04-24T04:53:17.101Z,1012.72
2017-04-24T04:54:29.622Z,1012.74
2017-04-24T04:55:41.819Z,1012.77
2017-04-24T04:56:54.040Z,1012.74
2017-04-24T04:58:06.580Z,1012.76
2017-04-24T04:59:18.822Z,1012.75
2017-04-24T05:00:31.348Z,1012.76
2017-04-24T05:01:43.872Z,1012.84
2017-04-24T05:02:56.118Z,1012.81
2017-04-24T05:04:08.354Z,1012.76
2017-04-24T05:05:20.853Z,1012.72
2017-04-24T05:06:33.381Z,1012.74
2017-04-24T05:07:45.849Z,1012.75
2017-04-24T05:08:58.074Z,1012.81
2017-04-24T05:10:10.619Z,1012.76
2017-04-24T05:11:23.132Z,1012.8
2017-04-24T05:12:35.660Z,1012.8
2017-04-24T05:13:48.200Z,1012.78
2017-04-24T05:15:00.716Z,1012.82
2017-04-24T05:16:12.916Z,1012.79
2017-04-24T05:17:25.433Z,1012.79
2017-04-24T05:18:37.966Z,1012.76
2017-04-24T05:19:50.488Z,1012.76
2017-04-24T05:21:03.010Z,1012.77
2017-04-24T05:22:15.527Z,1012.73
2017-04-24T05:23:28.042Z,1012.78
2017-04-24T05:24:40.562Z,1012.78
2017-04-24T05:25:53.091Z,1012.78
2017-04-24T05:27:05.328Z,1012.74
2017-04-24T05:28:17.554Z,1012.75
2017-04-24T05:29:30.093Z,1012.69
2017-04-24T05:30:42.266Z,1012.75
2017-04-24T05:31:54.766Z,1012.72
2017-04-24T05:33:07.305Z,1012.71
2017-04-24T05:34:19.529Z,1012.7
2017-04-24T05:35:32.058Z,1012.71
2017-04-24T05:36:44.568Z,1012.71
2017-04-24T05:37:57.088Z,1012.71
2017-04-24T05:39:09.597Z,1012.76
2017-04-24T05:40:22.406Z,1012.76
2017-04-24T05:41:34.931Z,1012.78
2017-04-24T05:42:47.476Z,1012.77
2017-04-24T05:44:00.028Z,1012.76
2017-04-24T05:45:12.514Z,1012.79
2017-04-24T05:46:25.321Z,1012.77
2017-04-24T05:47:37.531Z,1012.77
2017-04-24T05:48:50.056Z,1012.8
2017-04-24T05:50:02.581Z,1012.81
2017-04-24T05:51:15.123Z,1012.78
2017-04-24T05:52:27.651Z,1012.8
2017-04-24T05:53:40.197Z,1012.82
2017-04-24T05:54:52.739Z,1012.79
2017-04-24T05:56:05.228Z,1012.81
2017-04-24T05:57:17.423Z,1012.8
2017-04-24T05:58:29.931Z,1012.78
2017-04-24T05:59:42.468Z,1012.77
2017-04-24T06:00:54.994Z,1012.74
2017-04-24T06:02:07.747Z,1012.7
2017-04-24T06:03:19.665Z,1012.71
2017-04-24T06:04:32.207Z,1012.68
2017-04-24T06:05:44.731Z,1012.66
2017-04-24T06:06:56.969Z,1012.64
2017-04-24T06:08:09.489Z,1012.65
2017-04-24T06:09:21.733Z,1012.6
2017-04-24T06:10:34.257Z,1012.65
2017-04-24T06:11:46.178Z,1012.63
2017-04-24T06:12:58.723Z,1012.63
2017-04-24T06:14:11.277Z,1012.65
2017-04-24T06:15:23.849Z,1012.65
2017-04-24T06:16:36.371Z,1012.59
2017-04-24T06:17:48.912Z,1012.6
2017-04-24T06:19:01.437Z,1012.57
2017-04-24T06:20:13.679Z,1012.54
2017-04-24T06:21:25.896Z,1012.59
2017-04-24T06:22:38.426Z,1012.68
2017-04-24T06:23:51.272Z,1012.65
2017-04-24T06:25:03.815Z,1012.62
2017-04-24T06:26:16.356Z,1012.64
2017-04-24T06:27:28.885Z,1012.67
2017-04-24T06:28:41.444Z,1012.67
2017-04-24T06:29:53.987Z,1012.61
2017-04-24T06:31:06.494Z,1012.71
2017-04-24T06:32:19.029Z,1012.75
2017-04-24T06:33:31.575Z,1012.74
2017-04-24T06:34:44.080Z,1012.66
2017-04-24T06:35:56.327Z,1012.57
2017-04-24T06:37:08.850Z,1012.47
2017-04-24T06:38:21.398Z,1012.48
2017-04-24T06:39:33.641Z,1012.45
2017-04-24T06:40:46.179Z,1012.43
2017-04-24T06:41:58.730Z,1012.46
2017-04-24T06:43:10.950Z,1012.47
2017-04-24T06:44:23.491Z,1012.42
2017-04-24T06:45:35.745Z,1012.4
2017-04-24T06:46:48.267Z,1012.4
2017-04-24T06:48:00.808Z,1012.37
2017-04-24T06:49:13.364Z,1012.42
2017-04-24T06:50:25.605Z,1012.41
2017-04-24T06:51:38.139Z,1012.42
2017-04-24T06:52:50.673Z,1012.49
2017-04-24T06:54:03.221Z,1012.51
2017-04-24T06:55:15.467Z,1012.45
2017-04-24T06:56:28.012Z,1012.49
2017-04-24T06:57:40.568Z,1012.54
2017-04-24T06:58:53.118Z,1012.48
2017-04-24T07:00:05.673Z,1012.48
2017-04-24T07:01:17.882Z,1012.52
2017-04-24T07:02:30.414Z,1012.5
2017-04-24T07:03:42.660Z,1012.44
2017-04-24T07:04:55.227Z,1012.44
2017-04-24T07:06:07.747Z,1012.36
2017-04-24T07:07:19.686Z,1012.33
2017-04-24T07:08:31.891Z,1012.33
2017-04-24T07:09:43.857Z,1012.28
2017-04-24T07:10:56.407Z,1012.22
2017-04-24T07:12:08.956Z,1012.18
2017-04-24T07:13:21.179Z,1012.19
2017-04-24T07:14:33.121Z,1012.14
2017-04-24T07:15:45.665Z,1012.12
2017-04-24T07:16:57.915Z,1012.07
2017-04-24T07:18:10.444Z,1012.12
2017-04-24T07:19:22.674Z,1012.15
2017-04-24T07:20:35.219Z,1012.04
2017-04-24T07:21:47.773Z,1012.06
2017-04-24T07:23:00.034Z,1012
2017-04-24T07:24:12.583Z,1011.99
2017-04-24T07:25:25.125Z,1012.01
2017-04-24T07:26:37.655Z,1011.99
2017-04-24T07:27:49.577Z,1011.95
2017-04-24T07:29:01.796Z,1012
2017-04-24T07:30:14.044Z,1011.99
2017-04-24T07:31:26.589Z,1011.94
2017-04-24T07:32:39.139Z,1011.92
2017-04-24T07:33:51.355Z,1011.92
2017-04-24T07:35:03.574Z,1011.88
2017-04-24T07:36:16.124Z,1011.93
2017-04-24T07:37:28.692Z,1011.83
2017-04-24T07:38:41.217Z,1011.85
2017-04-24T07:39:53.459Z,1011.84
2017-04-24T07:41:06.009Z,1011.81
2017-04-24T07:42:18.242Z,1011.82
2017-04-24T07:43:30.771Z,1011.75
2017-04-24T07:44:43.328Z,1011.75
2017-04-24T07:45:55.894Z,1011.74
2017-04-24T07:47:07.828Z,1011.73
2017-04-24T07:48:19.783Z,1011.68
2017-04-24T07:49:31.743Z,1011.63
2017-04-24T07:50:43.967Z,1011.56
2017-04-24T07:51:56.519Z,1011.57
2017-04-24T07:53:09.085Z,1011.57
2017-04-24T07:54:21.639Z,1011.55
2017-04-24T07:55:34.207Z,1011.52
2017-04-24T07:56:46.750Z,1011.53
2017-04-24T07:57:58.672Z,1011.53
2017-04-24T07:59:11.220Z,1011.57
2017-04-24T08:00:23.795Z,1011.52
2017-04-24T08:01:35.716Z,1011.41
2017-04-24T08:02:48.262Z,1011.25
2017-04-24T08:04:00.781Z,1011.28
2017-04-24T08:05:12.714Z,1011.26
2017-04-24T08:06:24.996Z,1011.29
2017-04-24T08:07:37.564Z,1011.36
2017-04-24T08:08:50.064Z,1011.33
2017-04-24T08:10:02.331Z,1011.33
2017-04-24T08:11:14.543Z,1011.36
2017-04-24T08:12:26.465Z,1011.39
2017-04-24T08:13:39.027Z,1011.33
2017-04-24T08:14:51.586Z,1011.44
2017-04-24T08:16:04.140Z,1011.42
2017-04-24T08:17:16.686Z,1011.37
2017-04-24T08:18:28.927Z,1011.44
2017-04-24T08:19:41.427Z,1011.34
2017-04-24T08:20:53.977Z,1011.27
2017-04-24T08:22:06.511Z,1011.19
2017-04-24T08:23:18.732Z,1011.18
2017-04-24T08:24:31.232Z,1011.14
2017-04-24T08:25:43.771Z,1011.07
2017-04-24T08:26:56.292Z,1010.98
2017-04-24T08:28:08.824Z,1010.93
2017-04-24T08:29:21.071Z,1010.94
2017-04-24T08:30:33.633Z,1010.94
2017-04-24T08:31:45.887Z,1010.95
2017-04-24T08:32:58.433Z,1010.99
2017-04-24T08:34:10.978Z,1010.92
2017-04-24T08:35:23.527Z,1010.92
2017-04-24T08:36:36.048Z,1011.1
2017-04-24T08:37:48.292Z,1010.95
2017-04-24T08:39:00.517Z,1010.95
2017-04-24T08:40:13.311Z,1010.9
2017-04-24T08:41:25.849Z,1010.87
2017-04-24T08:42:38.354Z,1010.88
2017-04-24T08:43:50.891Z,1010.8
2017-04-24T08:45:03.157Z,1010.83
2017-04-24T08:46:15.408Z,1010.9
2017-04-24T08:47:27.932Z,1010.79
2017-04-24T08:48:40.503Z,1010.89
2017-04-24T08:49:53.026Z,1010.83
2017-04-24T08:51:05.297Z,1010.81
2017-04-24T08:52:17.542Z,1010.83
2017-04-24T08:53:30.058Z,1010.8
2017-04-24T08:54:42.304Z,1010.91
2017-04-24T08:55:54.855Z,1010.91
2017-04-24T08:57:07.401Z,1010.89
2017-04-24T08:58:19.963Z,1010.92
2017-04-24T08:59:32.485Z,1010.87
2017-04-24T09:00:45.012Z,1010.91
2017-04-24T09:01:57.258Z,1010.7
2017-04-24T09:03:09.780Z,1010.7
2017-04-24T09:04:21.998Z,1010.71
2017-04-24T09:05:34.539Z,1010.75
2017-04-24T09:06:47.089Z,1010.75
2017-04-24T09:07:59.631Z,1010.74
2017-04-24T09:09:11.262Z,1010.66
2017-04-24T09:10:23.810Z,1010.62
2017-04-24T09:11:36.056Z,1010.55
2017-04-24T09:12:48.297Z,1010.56
2017-04-24T09:14:00.820Z,1010.54
2017-04-24T09:15:12.780Z,1010.54
2017-04-24T09:16:25.331Z,1010.51
2017-04-24T09:17:37.905Z,1010.45
2017-04-24T09:18:50.450Z,1010.49
2017-04-24T09:20:02.697Z,1010.5
2017-04-24T09:21:14.917Z,1010.52
2017-04-24T09:22:27.454Z,1010.47
2017-04-24T09:23:39.982Z,1010.52
2017-04-24T09:24:52.180Z,1010.49
2017-04-24T09:26:04.707Z,1010.41
2017-04-24T09:27:16.654Z,1010.36
2017-04-24T09:28:29.166Z,1010.36
2017-04-24T09:29:41.686Z,1010.48
2017-04-24T09:30:53.925Z,1010.46
2017-04-24T09:32:06.436Z,1010.34
2017-04-24T09:33:18.975Z,1010.34
2017-04-24T09:34:31.523Z,1010.44
2017-04-24T09:35:44.066Z,1010.29
2017-04-24T09:36:56.592Z,1010.27
2017-04-24T09:38:09.136Z,1010.27
2017-04-24T09:39:21.383Z,1010.28
2017-04-24T09:40:33.902Z,1010.25
2017-04-24T09:41:46.438Z,1010.19
2017-04-24T09:42:58.644Z,1010.16
2017-04-24T09:44:11.167Z,1010.04
2017-04-24T09:45:23.712Z,1010.06
2017-04-24T09:46:36.253Z,1010.02
2017-04-24T09:47:48.479Z,1009.96
2017-04-24T09:49:01.042Z,1009.9
2017-04-24T09:50:13.613Z,1009.81
2017-04-24T09:51:26.158Z,1009.81
2017-04-24T09:52:38.701Z,1009.78
2017-04-24T09:53:50.950Z,1009.75
2017-04-24T09:55:03.500Z,1009.76
2017-04-24T09:56:16.050Z,1009.76
2017-04-24T09:57:28.594Z,1009.77
2017-04-24T09:58:41.131Z,1009.82
2017-04-24T09:59:53.688Z,1009.73
2017-04-24T10:01:06.233Z,1009.74
2017-04-24T10:02:18.759Z,1009.74
2017-04-24T10:03:31.271Z,1009.75
2017-04-24T10:04:43.522Z,1009.68
2017-04-24T10:05:56.108Z,1009.72
2017-04-24T10:07:08.639Z,1009.64
2017-04-24T10:08:21.180Z,1009.64
2017-04-24T10:09:33.726Z,1009.71
2017-04-24T10:10:45.947Z,1009.61
2017-04-24T10:11:58.461Z,1009.73
2017-04-24T10:13:10.689Z,1009.67
2017-04-24T10:14:23.256Z,1009.59
2017-04-24T10:15:35.783Z,1009.55
2017-04-24T10:16:48.350Z,1009.49
2017-04-24T10:18:00.893Z,1009.46
2017-04-24T10:19:13.120Z,1009.43
2017-04-24T10:20:25.369Z,1009.38
2017-04-24T10:21:37.603Z,1009.32
2017-04-24T10:22:50.151Z,1009.43
2017-04-24T10:24:02.677Z,1009.41
2017-04-24T10:25:14.340Z,1009.19
2017-04-24T10:26:26.869Z,1009.23
2017-04-24T10:27:39.385Z,1009.36
2017-04-24T10:28:51.914Z,1009.36
2017-04-24T10:30:04.495Z,1009.31
2017-04-24T10:31:16.749Z,1009.31
2017-04-24T10:32:29.266Z,1009.18
2017-04-24T10:33:41.823Z,1009.15
2017-04-24T10:34:54.069Z,1009.14
2017-04-24T10:36:06.311Z,1009.15
2017-04-24T10:37:18.586Z,1009.05
2017-04-24T10:38:31.135Z,1009.04
2017-04-24T10:39:43.641Z,1009.03
2017-04-24T10:40:56.163Z,1008.94
2017-04-24T10:42:08.695Z,1008.89
2017-04-24T10:43:21.240Z,1008.81
2017-04-24T10:44:33.785Z,1008.82
2017-04-24T10:45:46.328Z,1008.8
2017-04-24T10:46:58.877Z,1008.75
2017-04-24T10:48:11.392Z,1008.69
2017-04-24T10:49:23.963Z,1008.65
2017-04-24T10:50:36.539Z,1008.76
2017-04-24T10:51:49.087Z,1008.61
2017-04-24T10:53:01.621Z,1008.64
2017-04-24T10:54:13.868Z,1008.73
2017-04-24T10:55:26.398Z,1008.57
2017-04-24T10:56:38.968Z,1008.53
2017-04-24T10:57:51.505Z,1008.49
2017-04-24T10:59:04.038Z,1008.58
2017-04-24T11:00:16.605Z,1008.56
2017-04-24T11:01:29.179Z,1008.54
2017-04-24T11:02:41.443Z,1008.52
2017-04-24T11:03:53.993Z,1008.59
2017-04-24T11:05:06.559Z,1008.67
2017-04-24T11:06:18.802Z,1008.45
2017-04-24T11:07:31.334Z,1008.52
2017-04-24T11:08:43.898Z,1008.33
2017-04-24T11:09:56.169Z,1008.35
2017-04-24T11:11:08.400Z,1008.43
2017-04-24T11:12:20.641Z,1008.44
2017-04-24T11:13:33.165Z,1008.4
2017-04-24T11:14:45.435Z,1008.6
2017-04-24T11:15:58.007Z,1008.56
2017-04-24T11:17:10.568Z,1008.61
2017-04-24T11:18:23.111Z,1008.46
2017-04-24T11:19:35.632Z,1008.48
2017-04-24T11:20:48.181Z,1008.37
2017-04-24T11:22:00.701Z,1008.33
2017-04-24T11:23:12.962Z,1008.27
2017-04-24T11:24:25.515Z,1008.16
2017-04-24T11:25:38.044Z,1008.14
2017-04-24T11:26:50.589Z,1008.13
2017-04-24T11:28:03.114Z,1008.02
2017-04-24T11:29:15.052Z,1007.96
2017-04-24T11:30:27.583Z,1008.08
2017-04-24T11:31:39.801Z,1008.06
2017-04-24T11:32:52.362Z,1007.98
2017-04-24T11:34:04.595Z,1007.9
2017-04-24T11:35:17.136Z,1007.87
2017-04-24T11:36:29.657Z,1007.88
2017-04-24T11:37:41.918Z,1007.89
2017-04-24T11:38:54.479Z,1007.79
2017-04-24T11:40:06.729Z,1007.73
2017-04-24T11:41:19.273Z,1007.75
2017-04-24T11:42:31.812Z,1007.8
2017-04-24T11:43:44.063Z,1007.84
2017-04-24T11:44:56.602Z,1007.76
2017-04-24T11:46:09.161Z,1007.75
2017-04-24T11:47:21.724Z,1007.71
2017-04-24T11:48:34.288Z,1007.62
2017-04-24T11:49:46.831Z,1007.59
2017-04-24T11:50:59.087Z,1007.65
2017-04-24T11:52:11.632Z,1007.61
2017-04-24T11:53:23.857Z,1007.52
2017-04-24T11:54:36.095Z,1007.62
2017-04-24T11:55:48.659Z,1007.74
2017-04-24T11:57:00.913Z,1007.63
2017-04-24T11:58:13.161Z,1007.59
2017-04-24T11:59:25.413Z,1007.45
2017-04-24T12:00:37.971Z,1007.55
2017-04-24T12:01:50.200Z,1007.55
2017-04-24T12:03:02.760Z,1007.61
2017-04-24T12:04:15.343Z,1007.52
2017-04-24T12:05:27.884Z,1007.69
2017-04-24T12:06:40.122Z,1007.69
2017-04-24T12:07:52.347Z,1007.7
2017-04-24T12:09:04.276Z,1007.57
2017-04-24T12:10:16.835Z,1007.7
2017-04-24T12:11:29.343Z,1007.59
2017-04-24T12:12:41.560Z,1007.48
2017-04-24T12:13:53.836Z,1007.37
2017-04-24T12:15:05.793Z,1007.31
2017-04-24T12:16:18.029Z,1007.29
2017-04-24T12:17:30.615Z,1007.45
2017-04-24T12:18:43.197Z,1007.48
2017-04-24T12:19:55.741Z,1007.35
2017-04-24T12:21:07.960Z,1007.37
2017-04-24T12:22:20.194Z,1007.35
2017-04-24T12:23:32.751Z,1007.15
2017-04-24T12:24:45.011Z,1007.19
2017-04-24T12:25:56.960Z,1007.21
2017-04-24T12:27:09.553Z,1007.07
2017-04-24T12:28:22.088Z,1007.11
2017-04-24T12:29:34.627Z,1007.1
2017-04-24T12:30:46.891Z,1007.09
2017-04-24T12:31:59.443Z,1007
2017-04-24T12:33:11.368Z,1007.19
2017-04-24T12:34:23.590Z,1007.09
2017-04-24T12:35:35.853Z,1007.07
2017-04-24T12:36:48.421Z,1006.8
2017-04-24T12:38:00.951Z,1006.97
2017-04-24T12:39:13.213Z,1006.98
2017-04-24T12:40:25.470Z,1006.87
2017-04-24T12:41:38.035Z,1006.84
2017-04-24T12:42:50.561Z,1006.97
2017-04-24T12:44:03.125Z,1006.92
2017-04-24T12:45:15.074Z,1006.9
2017-04-24T12:46:27.637Z,1006.81
2017-04-24T12:47:40.183Z,1006.77
2017-04-24T12:48:52.414Z,1006.81
2017-04-24T12:50:04.667Z,1006.78
2017-04-24T12:51:16.930Z,1006.67
2017-04-24T12:52:29.475Z,1006.65
2017-04-24T12:53:42.026Z,1006.59
2017-04-24T12:54:54.566Z,1006.59
2017-04-24T12:56:07.092Z,1006.54
2017-04-24T12:57:19.339Z,1006.57
2017-04-24T12:58:31.599Z,1006.54
2017-04-24T12:59:44.173Z,1006.65
2017-04-24T13:00:56.725Z,1006.55
2017-04-24T13:02:08.970Z,1006.45
2017-04-24T13:03:21.213Z,1006.29
2017-04-24T13:04:33.761Z,1006.4
2017-04-24T13:05:46.329Z,1006.41
2017-04-24T13:06:58.854Z,1006.42
2017-04-24T13:08:11.397Z,1006.37
2017-04-24T13:09:23.626Z,1006.26
2017-04-24T13:10:34.959Z,1006.36
2017-04-24T13:11:47.490Z,1006.37
2017-04-24T13:13:00.023Z,1006.38
2017-04-24T13:14:12.572Z,1006.36
2017-04-24T13:15:24.801Z,1006.3
2017-04-24T13:16:37.336Z,1006.33
2017-04-24T13:17:49.847Z,1006.12
2017-04-24T13:19:02.438Z,1006.22
2017-04-24T13:20:13.755Z,1006.17
2017-04-24T13:21:26.034Z,1006.05
2017-04-24T13:22:38.577Z,1006.1
2017-04-24T13:23:51.072Z,1006.07
2017-04-24T13:25:03.621Z,1006.01
2017-04-24T13:26:16.163Z,1006.07
2017-04-24T13:27:28.685Z,1005.95
2017-04-24T13:28:41.231Z,1005.96
2017-04-24T13:29:53.743Z,1005.99
2017-04-24T13:31:04.475Z,1005.9
2017-04-24T13:32:17.042Z,1005.97
2017-04-24T13:33:29.539Z,1005.9
2017-04-24T13:34:41.502Z,1005.9
2017-04-24T13:35:54.023Z,1005.8
2017-04-24T13:37:06.278Z,1005.82
2017-04-24T13:38:18.816Z,1005.76
2017-04-24T13:39:31.360Z,1005.8
2017-04-24T13:40:42.390Z,1005.71
2017-04-24T13:41:54.363Z,1005.72
2017-04-24T13:43:06.596Z,1005.71
2017-04-24T13:44:18.556Z,1005.68
2017-04-24T13:45:30.802Z,1005.64
2017-04-24T13:46:43.041Z,1005.7
2017-04-24T13:47:55.279Z,1005.68
2017-04-24T13:49:07.241Z,1005.55
2017-04-24T13:50:18.581Z,1005.6
2017-04-24T13:51:29.631Z,1005.68
2017-04-24T13:52:42.198Z,1005.81
2017-04-24T13:53:54.767Z,1005.64
2017-04-24T13:55:06.992Z,1005.63
2017-04-24T13:56:19.216Z,1005.54
2017-04-24T13:57:31.771Z,1005.51
2017-04-24T13:58:44.325Z,1005.54
2017-04-24T13:59:56.796Z,1005.42
2017-04-24T14:01:07.537Z,1005.48
2017-04-24T14:02:18.280Z,1005.46
2017-04-24T14:03:30.842Z,1005.49
2017-04-24T14:04:43.375Z,1005.48
2017-04-24T14:05:55.593Z,1005.28
2017-04-24T14:07:07.771Z,1005.4
2017-04-24T14:08:20.000Z,1005.5
2017-04-24T14:09:31.945Z,1005.46
2017-04-24T14:10:43.241Z,1005.31
2017-04-24T14:11:54.288Z,1005.4
2017-04-24T14:13:05.313Z,1005.33
2017-04-24T14:14:17.276Z,1005.35
2017-04-24T14:15:29.819Z,1005.18
2017-04-24T14:16:42.342Z,1005.36
2017-04-24T14:17:54.605Z,1005.38
2017-04-24T14:19:06.876Z,1005.4
2017-04-24T14:20:18.201Z,1005.29
2017-04-24T14:21:29.223Z,1005.36
2017-04-24T14:22:40.561Z,1005.36
2017-04-24T14:23:52.014Z,1005.36
2017-04-24T14:25:03.336Z,1005.27
2017-04-24T14:26:15.557Z,1005.28
2017-04-24T14:27:28.099Z,1005.29
2017-04-24T14:28:40.674Z,1005.36
2017-04-24T14:29:53.221Z,1005.38
2017-04-24T14:31:05.445Z,1005.32
2017-04-24T14:32:17.711Z,1005.32
2017-04-24T14:33:30.279Z,1005.33
2017-04-24T14:34:42.482Z,1005.28
2017-04-24T14:35:54.729Z,1005.14
2017-04-24T14:37:07.245Z,1005.09
2017-04-24T14:38:19.784Z,1005.15
2017-04-24T14:39:32.330Z,1005